»·PEaware :: APA3234 KDFW-KDEN

APA3234 :: KDFW-KDEN

FLIGHT INFORMATION

Flight Status: Arrived
Operator: Unknown
More flights by this operator :: More flights under this callsign
Pilot: Stacy K. (11621)
Aircraft: BOEING 737-800
(B738)
More flights by this aircraft type
Origin: KDFW Dallas-Ft Worth Intl
United States
Destination: KDEN Denver Intl
United States
More flights between these airports :: More routes between these airports
Route: +HGO118034 ZYPLN ZYPLN3
File this flight plan on PilotEdge
Remarks: PBN / A1B1C1D1S1S2 DOF / 170517 REG / N1404PK EET / KZAB0037 KZDV0107 SEL / DEFK OPR / APA RMK / TCAS
Altitude:
(Current/Filed)
34,000ft
Speed:
(Current/Filed)
455kts
Departed: 17-May-17 02:10 PM
Arrived: 17-May-17 03:56 PM
Distance/Time
Traveled:
557nm/1:45
Distance/Time
To Go:
Arrived

Flight Plot

Page will automatically refresh every two minutes.

Flight plan parsing failed; only flown route is shown


Map Options




Map Legend


Flown Route
Filed Route
Departure Airport
Arrival Airport
Navaid (VOR, NDB)
Fix

Horizontal Profiles

Position Reports

Time Latitude Longitude Heading Altitude Ground
Speed
17-May-17 13:41 32.903569 -97.045292 75 564ft 0kts
17-May-17 13:42 32.903569 -97.045292 75 564ft 0kts
17-May-17 13:43 32.903569 -97.045292 75 564ft 0kts
17-May-17 13:44 32.903569 -97.045292 75 564ft 0kts
17-May-17 13:45 32.903569 -97.045292 75 564ft 0kts
17-May-17 13:46 32.903569 -97.045292 75 564ft 0kts
17-May-17 13:47 32.903569 -97.045292 75 564ft 0kts
17-May-17 13:48 32.903569 -97.045292 75 564ft 0kts
17-May-17 13:49 32.903569 -97.045292 75 564ft 0kts
17-May-17 13:50 32.903569 -97.045292 75 564ft 0kts
17-May-17 13:51 32.903569 -97.045292 75 564ft 0kts
17-May-17 13:52 32.903569 -97.045292 75 564ft 0kts
17-May-17 13:53 32.903569 -97.045292 75 564ft 0kts
17-May-17 13:54 32.903569 -97.045292 75 564ft 0kts
17-May-17 13:55 32.903569 -97.045292 75 564ft 0kts
17-May-17 13:56 32.903569 -97.045292 75 564ft 0kts
17-May-17 13:57 32.903569 -97.045292 75 564ft 0kts
17-May-17 13:58 32.903569 -97.045292 75 564ft 0kts
17-May-17 13:59 32.903569 -97.045292 75 564ft 0kts
17-May-17 14:00 32.903569 -97.045292 75 564ft 0kts
17-May-17 14:01 32.903569 -97.045292 75 564ft 0kts
17-May-17 14:02 32.903386 -97.045793 42 564ft 2kts
17-May-17 14:03 32.902914 -97.045750 333 564ft 0kts
17-May-17 14:04 32.902914 -97.045750 333 564ft 0kts
17-May-17 14:05 32.903070 -97.045838 335 564ft 9kts
17-May-17 14:06 32.905827 -97.047558 1 564ft 19kts
17-May-17 14:07 32.911040 -97.046882 3 564ft 18kts
17-May-17 14:08 32.915601 -97.048221 271 564ft 13kts
17-May-17 14:09 32.915599 -97.049741 270 564ft 0kts
17-May-17 14:10 32.915599 -97.049742 270 564ft 0kts
17-May-17 14:11 32.915603 -97.050080 270 564ft 8kts
17-May-17 14:12 32.898572 -97.050706 181 786ft 169kts
17-May-17 14:13 32.843607 -97.061564 196 4040ft 236kts
17-May-17 14:14 32.783782 -97.098588 235 7737ft 259kts
17-May-17 14:15 32.758097 -97.179013 268 11748ft 277kts
17-May-17 14:16 32.787551 -97.279176 291 13839ft 358kts
17-May-17 14:17 32.835998 -97.386704 291 17087ft 376kts
17-May-17 14:18 32.885907 -97.498977 291 19988ft 390kts
17-May-17 14:19 32.937227 -97.614886 291 22525ft 402kts
17-May-17 14:20 32.981329 -97.714731 291 24412ft 411kts
17-May-17 14:21 33.029612 -97.838994 287 26544ft 415kts
17-May-17 14:22 33.076995 -97.966370 287 28302ft 424kts
17-May-17 14:23 33.124462 -98.093399 287 30515ft 415kts
17-May-17 14:24 33.170817 -98.218042 287 32449ft 408kts
17-May-17 14:25 33.216648 -98.341163 286 34194ft 402kts
17-May-17 14:26 33.261575 -98.462689 286 35638ft 399kts
17-May-17 14:27 33.305907 -98.583445 286 36974ft 396kts
17-May-17 14:28 33.350195 -98.704194 286 37736ft 393kts
17-May-17 14:29 33.394168 -98.823091 286 37765ft 391kts
17-May-17 14:30 33.437787 -98.942150 286 37760ft 391kts
17-May-17 14:31 33.481151 -99.061584 286 37757ft 391kts
17-May-17 14:32 33.524683 -99.181689 286 37755ft 391kts
17-May-17 14:33 33.568046 -99.301642 286 37749ft 393kts
17-May-17 14:34 33.612968 -99.421616 293 37742ft 401kts
17-May-17 14:35 33.684282 -99.527803 303 37739ft 411kts
17-May-17 14:36 33.760071 -99.629967 303 37734ft 411kts
17-May-17 14:37 33.836202 -99.733122 303 37729ft 411kts
17-May-17 14:38 33.911565 -99.836186 303 37725ft 411kts
17-May-17 14:39 33.987103 -99.940006 303 37725ft 411kts
17-May-17 14:40 34.062216 -100.043669 303 37718ft 411kts
17-May-17 14:41 34.137193 -100.147496 303 37715ft 411kts
17-May-17 14:42 34.212247 -100.251573 303 37713ft 411kts
17-May-17 14:43 34.287319 -100.356086 303 37712ft 410kts
17-May-17 14:44 34.362099 -100.460211 303 37712ft 411kts
17-May-17 14:45 34.436701 -100.564650 303 37713ft 411kts
17-May-17 14:46 34.511475 -100.669504 303 37716ft 409kts
17-May-17 14:47 34.585800 -100.774140 303 37719ft 409kts
17-May-17 14:48 34.647726 -100.861285 303 37722ft 410kts
17-May-17 14:49 34.734413 -100.983196 303 37727ft 408kts
17-May-17 14:50 34.796552 -101.070644 303 37734ft 408kts
17-May-17 14:51 34.882722 -101.193024 303 37736ft 408kts
17-May-17 14:52 34.944089 -101.280750 303 37737ft 408kts
17-May-17 14:53 35.017476 -101.386016 303 37738ft 408kts
17-May-17 14:54 35.091094 -101.491781 303 37737ft 408kts
17-May-17 14:55 35.164394 -101.597452 303 37739ft 407kts
17-May-17 14:56 35.244406 -101.695894 321 37742ft 425kts
17-May-17 14:57 35.355192 -101.754529 330 37738ft 435kts
17-May-17 14:58 35.468692 -101.806651 330 37730ft 436kts
17-May-17 14:59 35.581966 -101.859135 330 37725ft 435kts
17-May-17 15:00 35.695469 -101.912129 330 37721ft 435kts
17-May-17 15:01 35.808637 -101.964789 330 37719ft 435kts
17-May-17 15:02 35.921835 -102.017403 330 37720ft 435kts
17-May-17 15:03 36.035118 -102.070036 330 37717ft 436kts
17-May-17 15:04 36.148790 -102.122868 330 37711ft 435kts
17-May-17 15:05 36.261875 -102.176070 330 37706ft 436kts
17-May-17 15:06 36.374899 -102.229449 330 37703ft 436kts
17-May-17 15:07 36.487983 -102.282988 330 37695ft 434kts
17-May-17 15:08 36.601146 -102.336799 330 37686ft 435kts
17-May-17 15:09 36.714024 -102.390585 330 37676ft 435kts
17-May-17 15:10 36.826851 -102.444398 330 37669ft 434kts
17-May-17 15:11 36.940012 -102.498582 330 37668ft 434kts
17-May-17 15:12 37.052784 -102.552881 330 37664ft 434kts
17-May-17 15:13 37.165387 -102.607117 330 37662ft 434kts
17-May-17 15:14 37.278064 -102.661623 330 37660ft 434kts
17-May-17 15:15 37.390974 -102.716565 330 37659ft 434kts
17-May-17 15:16 37.503490 -102.771306 331 37655ft 435kts
17-May-17 15:17 37.621226 -102.812597 337 37647ft 442kts
17-May-17 15:18 37.740365 -102.850168 337 37636ft 442kts
17-May-17 15:19 37.859880 -102.887932 337 37629ft 442kts
17-May-17 15:20 37.979013 -102.925664 337 37624ft 442kts
17-May-17 15:21 38.098671 -102.963253 338 37623ft 446kts
17-May-17 15:22 38.219067 -103.000800 338 37623ft 445kts
17-May-17 15:23 38.338920 -103.038720 338 37623ft 445kts
17-May-17 15:24 38.459060 -103.077211 338 37078ft 444kts
17-May-17 15:25 38.566536 -103.139036 310 35293ft 414kts
17-May-17 15:26 38.643958 -103.246296 306 33499ft 408kts
17-May-17 15:27 38.710328 -103.340832 307 31926ft 405kts
17-May-17 15:28 38.784255 -103.445502 307 30145ft 395kts
17-May-17 15:29 38.857547 -103.549033 307 28339ft 387kts
17-May-17 15:30 38.929303 -103.650505 308 26540ft 381kts
17-May-17 15:31 38.999750 -103.750376 308 24742ft 374kts
17-May-17 15:32 39.069129 -103.849220 308 24018ft 373kts
17-May-17 15:33 39.137045 -103.946435 307 24013ft 338kts
17-May-17 15:34 39.199364 -104.036321 307 24025ft 336kts
17-May-17 15:35 39.263248 -104.124641 316 24016ft 341kts
17-May-17 15:36 39.343046 -104.192293 323 24041ft 344kts
17-May-17 15:37 39.424615 -104.258104 323 24043ft 345kts
17-May-17 15:38 39.505584 -104.324269 323 24041ft 345kts
17-May-17 15:39 39.586647 -104.390792 323 24034ft 345kts
17-May-17 15:40 39.605257 -104.406111 323 24029ft 345kts
17-May-17 15:41 39.686245 -104.472668 324 24016ft 345kts
17-May-17 15:42 39.778416 -104.512513 347 24022ft 357kts
17-May-17 15:43 39.868056 -104.520295 352 23828ft 310kts
17-May-17 15:44 39.952660 -104.520521 355 21952ft 298kts
17-May-17 15:45 40.034333 -104.518528 357 19875ft 291kts
17-May-17 15:46 40.114211 -104.511009 1 17470ft 285kts
17-May-17 15:47 40.191959 -104.499891 3 15079ft 277kts
17-May-17 15:48 40.263770 -104.511592 310 12694ft 256kts
17-May-17 15:49 40.281866 -104.597253 278 10563ft 244kts
17-May-17 15:50 40.286617 -104.683833 247 8557ft 235kts
17-May-17 15:51 40.228265 -104.691516 154 7139ft 241kts
17-May-17 15:52 40.164376 -104.675613 187 7039ft 237kts
17-May-17 15:53 40.100984 -104.685975 183 7028ft 237kts
17-May-17 15:54 40.049259 -104.684909 180 7021ft 238kts
17-May-17 15:55 39.982432 -104.686616 179 7011ft 241kts
17-May-17 15:56 39.921369 -104.686639 178 5928ft 204kts
17-May-17 15:57 39.884203 -104.686917 179 5440ft 99kts
17-May-17 15:58 39.876847 -104.685941 149 5440ft 0kts
17-May-17 15:59 39.876846 -104.685940 149 5440ft 0kts
17-May-17 16:00 39.876845 -104.685940 149 5440ft 0kts
17-May-17 16:01 39.874003 -104.683796 181 5440ft 16kts
17-May-17 16:02 39.868228 -104.683867 180 5440ft 18kts
17-May-17 16:03 39.864404 -104.682028 60 5440ft 16kts
17-May-17 16:04 39.863898 -104.678151 173 5440ft 5kts
17-May-17 16:05 39.863601 -104.678133 178 5440ft 0kts
17-May-17 16:06 39.863601 -104.678133 178 5440ft 0kts
17-May-17 16:07 39.863601 -104.678133 178 5440ft 0kts
17-May-17 16:08 39.863601 -104.678133 178 5440ft 0kts

Navigation Log

Ident Type
Flight plan parsing failed, navigation log unavailable